sensor_id;sensor_type;location;lat;lon;timestamp;temperature;humidity
22469;DHT22;11401;50.792;4.352;2023-02-21T00:00:13;15.20;60.90
22469;DHT22;11401;50.792;4.352;2023-02-21T00:02:59;15.20;61.50
22469;DHT22;11401;50.792;4.352;2023-02-21T00:05:45;15.20;61.70
22469;DHT22;11401;50.792;4.352;2023-02-21T00:08:32;15.20;61.10
22469;DHT22;11401;50.792;4.352;2023-02-21T00:11:18;15.20;61.80
22469;DHT22;11401;50.792;4.352;2023-02-21T00:14:03;15.20;61.30
22469;DHT22;11401;50.792;4.352;2023-02-21T00:16:48;15.30;61.10
22469;DHT22;11401;50.792;4.352;2023-02-21T00:19:34;15.20;61.20
22469;DHT22;11401;50.792;4.352;2023-02-21T00:22:19;15.20;61.30
22469;DHT22;11401;50.792;4.352;2023-02-21T00:25:05;15.30;62.20
22469;DHT22;11401;50.792;4.352;2023-02-21T00:27:50;15.30;61.10
22469;DHT22;11401;50.792;4.352;2023-02-21T00:30:36;15.30;60.90
22469;DHT22;11401;50.792;4.352;2023-02-21T00:33:21;15.30;60.90
22469;DHT22;11401;50.792;4.352;2023-02-21T00:36:07;15.40;61.50
22469;DHT22;11401;50.792;4.352;2023-02-21T00:38:53;15.30;61.50
22469;DHT22;11401;50.792;4.352;2023-02-21T00:41:38;15.30;61.30
22469;DHT22;11401;50.792;4.352;2023-02-21T00:44:24;15.30;61.50
22469;DHT22;11401;50.792;4.352;2023-02-21T00:47:09;15.40;61.30
22469;DHT22;11401;50.792;4.352;2023-02-21T00:49:54;15.50;61.30
22469;DHT22;11401;50.792;4.352;2023-02-21T00:52:40;15.60;60.30
22469;DHT22;11401;50.792;4.352;2023-02-21T00:55:25;15.50;60.90
22469;DHT22;11401;50.792;4.352;2023-02-21T00:58:10;15.40;60.10
22469;DHT22;11401;50.792;4.352;2023-02-21T01:00:56;15.20;60.70
22469;DHT22;11401;50.792;4.352;2023-02-21T01:03:42;15.10;61.90
22469;DHT22;11401;50.792;4.352;2023-02-21T01:06:28;15.10;62.50
22469;DHT22;11401;50.792;4.352;2023-02-21T01:09:14;15.10;61.90
22469;DHT22;11401;50.792;4.352;2023-02-21T01:12:00;15.20;62.30
22469;DHT22;11401;50.792;4.352;2023-02-21T01:14:45;15.20;61.40
22469;DHT22;11401;50.792;4.352;2023-02-21T01:17:31;15.20;61.40
22469;DHT22;11401;50.792;4.352;2023-02-21T01:20:16;15.20;61.20
22469;DHT22;11401;50.792;4.352;2023-02-21T01:23:03;15.20;61.80
22469;DHT22;11401;50.792;4.352;2023-02-21T01:25:49;15.20;62.10
22469;DHT22;11401;50.792;4.352;2023-02-21T01:28:34;15.20;62.00
22469;DHT22;11401;50.792;4.352;2023-02-21T01:31:21;15.20;61.80
22469;DHT22;11401;50.792;4.352;2023-02-21T01:34:07;15.20;61.90
22469;DHT22;11401;50.792;4.352;2023-02-21T01:36:52;15.20;61.60
22469;DHT22;11401;50.792;4.352;2023-02-21T01:39:38;15.10;62.40
22469;DHT22;11401;50.792;4.352;2023-02-21T01:42:23;15.10;62.00
22469;DHT22;11401;50.792;4.352;2023-02-21T01:45:42;15.10;62.40
22469;DHT22;11401;50.792;4.352;2023-02-21T01:48:29;15.10;62.20
22469;DHT22;11401;50.792;4.352;2023-02-21T01:51:17;15.20;62.20
22469;DHT22;11401;50.792;4.352;2023-02-21T01:54:04;15.10;61.60
22469;DHT22;11401;50.792;4.352;2023-02-21T01:56:52;15.10;61.70
22469;DHT22;11401;50.792;4.352;2023-02-21T01:59:39;15.10;62.10
22469;DHT22;11401;50.792;4.352;2023-02-21T02:02:36;15.00;62.30
22469;DHT22;11401;50.792;4.352;2023-02-21T02:05:23;15.00;62.40
22469;DHT22;11401;50.792;4.352;2023-02-21T02:08:11;15.00;62.10
22469;DHT22;11401;50.792;4.352;2023-02-21T02:11:08;15.10;62.00
22469;DHT22;11401;50.792;4.352;2023-02-21T02:14:19;15.10;61.80
22469;DHT22;11401;50.792;4.352;2023-02-21T02:16:59;15.10;62.10
22469;DHT22;11401;50.792;4.352;2023-02-21T02:20:01;15.10;61.60
22469;DHT22;11401;50.792;4.352;2023-02-21T02:45:14;15.00;62.70
22469;DHT22;11401;50.792;4.352;2023-02-21T02:47:44;14.90;62.50
22469;DHT22;11401;50.792;4.352;2023-02-21T02:50:13;14.90;62.20
22469;DHT22;11401;50.792;4.352;2023-02-21T02:52:52;14.90;63.10
22469;DHT22;11401;50.792;4.352;2023-02-21T02:57:49;14.90;63.10
22469;DHT22;11401;50.792;4.352;2023-02-21T03:00:18;15.00;62.60
22469;DHT22;11401;50.792;4.352;2023-02-21T03:05:49;15.00;62.20
22469;DHT22;11401;50.792;4.352;2023-02-21T03:08:25;14.90;63.00
22469;DHT22;11401;50.792;4.352;2023-02-21T03:11:14;14.90;63.10
22469;DHT22;11401;50.792;4.352;2023-02-21T03:13:50;14.90;63.20
22469;DHT22;11401;50.792;4.352;2023-02-21T03:16:40;14.90;63.00
22469;DHT22;11401;50.792;4.352;2023-02-21T03:19:24;14.90;63.20
22469;DHT22;11401;50.792;4.352;2023-02-21T03:21:59;14.90;62.50
22469;DHT22;11401;50.792;4.352;2023-02-21T03:24:28;14.90;62.90
22469;DHT22;11401;50.792;4.352;2023-02-21T03:27:01;14.90;62.80
22469;DHT22;11401;50.792;4.352;2023-02-21T03:29:49;15.00;62.60
22469;DHT22;11401;50.792;4.352;2023-02-21T03:34:53;14.80;62.40
22469;DHT22;11401;50.792;4.352;2023-02-21T03:37:35;14.80;63.20
22469;DHT22;11401;50.792;4.352;2023-02-21T03:40:12;14.80;63.00
22469;DHT22;11401;50.792;4.352;2023-02-21T03:42:45;14.90;62.90
22469;DHT22;11401;50.792;4.352;2023-02-21T03:45:15;14.90;62.70
22469;DHT22;11401;50.792;4.352;2023-02-21T03:47:47;14.80;63.10
22469;DHT22;11401;50.792;4.352;2023-02-21T03:50:14;14.80;62.70
22469;DHT22;11401;50.792;4.352;2023-02-21T03:52:43;14.80;62.60
22469;DHT22;11401;50.792;4.352;2023-02-21T03:55:10;14.80;63.30
22469;DHT22;11401;50.792;4.352;2023-02-21T03:57:38;14.80;63.00
22469;DHT22;11401;50.792;4.352;2023-02-21T04:00:05;14.80;62.80
22469;DHT22;11401;50.792;4.352;2023-02-21T04:02:41;14.80;63.10
22469;DHT22;11401;50.792;4.352;2023-02-21T04:05:15;14.80;62.70
22469;DHT22;11401;50.792;4.352;2023-02-21T04:07:42;14.80;62.60
22469;DHT22;11401;50.792;4.352;2023-02-21T04:10:10;14.90;62.70
22469;DHT22;11401;50.792;4.352;2023-02-21T04:12:42;14.80;62.70
22469;DHT22;11401;50.792;4.352;2023-02-21T04:15:10;14.80;62.90
22469;DHT22;11401;50.792;4.352;2023-02-21T04:17:38;14.80;63.50
22469;DHT22;11401;50.792;4.352;2023-02-21T04:20:07;14.80;63.50
22469;DHT22;11401;50.792;4.352;2023-02-21T04:22:39;14.90;63.20
22469;DHT22;11401;50.792;4.352;2023-02-21T04:25:07;14.70;62.90
22469;DHT22;11401;50.792;4.352;2023-02-21T04:27:40;14.80;63.00
22469;DHT22;11401;50.792;4.352;2023-02-21T04:30:08;14.70;63.20
22469;DHT22;11401;50.792;4.352;2023-02-21T04:32:36;14.80;63.40
22469;DHT22;11401;50.792;4.352;2023-02-21T04:35:08;14.80;63.00
22469;DHT22;11401;50.792;4.352;2023-02-21T04:37:36;14.70;63.00
22469;DHT22;11401;50.792;4.352;2023-02-21T04:40:03;14.70;63.30
22469;DHT22;11401;50.792;4.352;2023-02-21T04:42:33;14.70;63.40
22469;DHT22;11401;50.792;4.352;2023-02-21T04:45:01;14.70;63.40
22469;DHT22;11401;50.792;4.352;2023-02-21T04:47:29;14.70;63.40
22469;DHT22;11401;50.792;4.352;2023-02-21T04:49:56;14.70;63.60
22469;DHT22;11401;50.792;4.352;2023-02-21T04:52:23;14.70;63.30
22469;DHT22;11401;50.792;4.352;2023-02-21T04:54:50;14.70;63.40
22469;DHT22;11401;50.792;4.352;2023-02-21T04:57:17;14.70;63.00
22469;DHT22;11401;50.792;4.352;2023-02-21T04:59:44;14.70;63.20
22469;DHT22;11401;50.792;4.352;2023-02-21T05:02:11;14.70;63.10
22469;DHT22;11401;50.792;4.352;2023-02-21T05:04:38;14.70;62.90
22469;DHT22;11401;50.792;4.352;2023-02-21T05:07:05;14.70;63.50
22469;DHT22;11401;50.792;4.352;2023-02-21T05:09:32;14.60;63.10
22469;DHT22;11401;50.792;4.352;2023-02-21T05:11:59;14.60;64.00
22469;DHT22;11401;50.792;4.352;2023-02-21T05:14:26;14.60;64.20
22469;DHT22;11401;50.792;4.352;2023-02-21T05:16:53;14.60;63.10
22469;DHT22;11401;50.792;4.352;2023-02-21T05:19:21;14.60;63.10
22469;DHT22;11401;50.792;4.352;2023-02-21T05:21:57;14.70;63.30
22469;DHT22;11401;50.792;4.352;2023-02-21T05:24:29;14.60;63.60
22469;DHT22;11401;50.792;4.352;2023-02-21T05:26:56;14.60;63.00
22469;DHT22;11401;50.792;4.352;2023-02-21T05:29:24;14.60;63.50
22469;DHT22;11401;50.792;4.352;2023-02-21T05:31:51;14.50;62.80
22469;DHT22;11401;50.792;4.352;2023-02-21T05:34:18;14.40;64.10
22469;DHT22;11401;50.792;4.352;2023-02-21T05:36:45;14.40;63.90
22469;DHT22;11401;50.792;4.352;2023-02-21T05:39:12;14.40;64.00
22469;DHT22;11401;50.792;4.352;2023-02-21T05:41:48;14.50;63.90
22469;DHT22;11401;50.792;4.352;2023-02-21T05:44:16;14.50;63.80
22469;DHT22;11401;50.792;4.352;2023-02-21T05:46:43;14.60;63.20
22469;DHT22;11401;50.792;4.352;2023-02-21T05:49:11;14.60;63.50
22469;DHT22;11401;50.792;4.352;2023-02-21T05:51:41;14.50;63.50
22469;DHT22;11401;50.792;4.352;2023-02-21T05:54:13;14.50;63.60
22469;DHT22;11401;50.792;4.352;2023-02-21T05:56:42;14.60;63.50
22469;DHT22;11401;50.792;4.352;2023-02-21T05:59:09;14.60;63.60
22469;DHT22;11401;50.792;4.352;2023-02-21T06:01:36;14.60;63.30
22469;DHT22;11401;50.792;4.352;2023-02-21T06:04:04;14.50;63.70
22469;DHT22;11401;50.792;4.352;2023-02-21T06:06:31;14.50;63.70
22469;DHT22;11401;50.792;4.352;2023-02-21T06:08:58;14.50;63.30
22469;DHT22;11401;50.792;4.352;2023-02-21T06:11:30;14.40;63.50
22469;DHT22;11401;50.792;4.352;2023-02-21T06:14:00;14.40;64.20
22469;DHT22;11401;50.792;4.352;2023-02-21T06:16:33;14.40;64.10
22469;DHT22;11401;50.792;4.352;2023-02-21T06:19:01;14.40;64.50
22469;DHT22;11401;50.792;4.352;2023-02-21T06:21:29;14.50;64.10
22469;DHT22;11401;50.792;4.352;2023-02-21T06:23:56;14.50;63.90
22469;DHT22;11401;50.792;4.352;2023-02-21T06:26:23;14.50;63.50
22469;DHT22;11401;50.792;4.352;2023-02-21T06:28:50;14.60;63.80
22469;DHT22;11401;50.792;4.352;2023-02-21T06:31:18;14.60;63.70
22469;DHT22;11401;50.792;4.352;2023-02-21T06:33:46;14.50;63.80
22469;DHT22;11401;50.792;4.352;2023-02-21T06:36:19;14.50;64.10
22469;DHT22;11401;50.792;4.352;2023-02-21T06:38:48;14.40;64.10
22469;DHT22;11401;50.792;4.352;2023-02-21T06:41:21;14.40;63.30
22469;DHT22;11401;50.792;4.352;2023-02-21T06:43:51;14.30;63.30
22469;DHT22;11401;50.792;4.352;2023-02-21T06:46:21;14.20;63.10
22469;DHT22;11401;50.792;4.352;2023-02-21T06:48:48;14.00;64.30
22469;DHT22;11401;50.792;4.352;2023-02-21T06:51:16;14.00;65.40
22469;DHT22;11401;50.792;4.352;2023-02-21T06:53:44;14.00;63.80
22469;DHT22;11401;50.792;4.352;2023-02-21T06:56:14;13.90;63.80
22469;DHT22;11401;50.792;4.352;2023-02-21T06:58:41;13.80;64.90
22469;DHT22;11401;50.792;4.352;2023-02-21T07:01:08;13.80;65.10
22469;DHT22;11401;50.792;4.352;2023-02-21T07:03:38;13.80;65.00
22469;DHT22;11401;50.792;4.352;2023-02-21T07:06:06;13.70;65.70
22469;DHT22;11401;50.792;4.352;2023-02-21T07:08:33;13.60;66.00
22469;DHT22;11401;50.792;4.352;2023-02-21T07:11:00;13.70;66.40
22469;DHT22;11401;50.792;4.352;2023-02-21T07:13:27;13.70;66.50
22469;DHT22;11401;50.792;4.352;2023-02-21T07:15:54;13.60;65.70
22469;DHT22;11401;50.792;4.352;2023-02-21T07:18:21;13.60;66.30
22469;DHT22;11401;50.792;4.352;2023-02-21T07:20:48;13.60;66.20
22469;DHT22;11401;50.792;4.352;2023-02-21T07:23:15;13.70;66.30
22469;DHT22;11401;50.792;4.352;2023-02-21T07:25:42;13.70;66.30
22469;DHT22;11401;50.792;4.352;2023-02-21T07:28:10;13.70;66.30
22469;DHT22;11401;50.792;4.352;2023-02-21T07:30:37;13.70;67.00
22469;DHT22;11401;50.792;4.352;2023-02-21T07:33:04;13.80;65.50
22469;DHT22;11401;50.792;4.352;2023-02-21T07:35:31;13.80;65.90
22469;DHT22;11401;50.792;4.352;2023-02-21T07:37:58;13.90;66.10
22469;DHT22;11401;50.792;4.352;2023-02-21T07:40:25;14.00;65.70
22469;DHT22;11401;50.792;4.352;2023-02-21T07:42:52;14.10;64.60
22469;DHT22;11401;50.792;4.352;2023-02-21T07:45:19;14.10;64.80
22469;DHT22;11401;50.792;4.352;2023-02-21T07:47:46;14.00;64.40
22469;DHT22;11401;50.792;4.352;2023-02-21T07:50:15;13.90;64.60
22469;DHT22;11401;50.792;4.352;2023-02-21T07:52:42;13.90;64.60
22469;DHT22;11401;50.792;4.352;2023-02-21T07:55:09;13.90;65.30
22469;DHT22;11401;50.792;4.352;2023-02-21T07:57:38;13.90;65.20
22469;DHT22;11401;50.792;4.352;2023-02-21T08:00:05;14.00;63.90
22469;DHT22;11401;50.792;4.352;2023-02-21T08:02:38;13.90;64.10
22469;DHT22;11401;50.792;4.352;2023-02-21T08:05:07;13.80;64.90
22469;DHT22;11401;50.792;4.352;2023-02-21T08:07:34;13.80;64.60
22469;DHT22;11401;50.792;4.352;2023-02-21T08:10:01;13.80;64.90
22469;DHT22;11401;50.792;4.352;2023-02-21T08:12:28;13.80;65.40
22469;DHT22;11401;50.792;4.352;2023-02-21T08:14:55;13.80;65.50
22469;DHT22;11401;50.792;4.352;2023-02-21T08:17:22;13.70;65.80
22469;DHT22;11401;50.792;4.352;2023-02-21T08:19:49;13.70;65.90
22469;DHT22;11401;50.792;4.352;2023-02-21T08:22:17;13.80;66.10
22469;DHT22;11401;50.792;4.352;2023-02-21T08:24:45;13.80;65.30
22469;DHT22;11401;50.792;4.352;2023-02-21T08:27:12;13.80;66.70
22469;DHT22;11401;50.792;4.352;2023-02-21T08:29:39;13.90;65.90
22469;DHT22;11401;50.792;4.352;2023-02-21T08:32:06;14.00;66.10
22469;DHT22;11401;50.792;4.352;2023-02-21T08:34:33;14.00;65.10
22469;DHT22;11401;50.792;4.352;2023-02-21T08:37:00;14.10;64.90
22469;DHT22;11401;50.792;4.352;2023-02-21T08:39:27;14.10;65.40
22469;DHT22;11401;50.792;4.352;2023-02-21T08:41:57;14.10;65.80
22469;DHT22;11401;50.792;4.352;2023-02-21T08:44:24;14.10;65.50
22469;DHT22;11401;50.792;4.352;2023-02-21T08:46:51;14.10;64.30
22469;DHT22;11401;50.792;4.352;2023-02-21T08:49:18;14.00;64.40
22469;DHT22;11401;50.792;4.352;2023-02-21T08:51:45;14.00;64.70
22469;DHT22;11401;50.792;4.352;2023-02-21T08:54:13;14.00;64.90
22469;DHT22;11401;50.792;4.352;2023-02-21T08:56:40;14.10;65.20
22469;DHT22;11401;50.792;4.352;2023-02-21T08:59:07;14.20;64.60
22469;DHT22;11401;50.792;4.352;2023-02-21T09:01:35;14.20;64.30
22469;DHT22;11401;50.792;4.352;2023-02-21T09:04:03;14.20;64.60
22469;DHT22;11401;50.792;4.352;2023-02-21T09:06:30;14.30;64.50
22469;DHT22;11401;50.792;4.352;2023-02-21T09:08:58;14.30;64.40
22469;DHT22;11401;50.792;4.352;2023-02-21T09:11:25;14.30;64.50
22469;DHT22;11401;50.792;4.352;2023-02-21T09:13:52;14.30;64.80
22469;DHT22;11401;50.792;4.352;2023-02-21T09:16:22;14.30;64.50
22469;DHT22;11401;50.792;4.352;2023-02-21T09:18:55;14.30;64.80
22469;DHT22;11401;50.792;4.352;2023-02-21T09:21:22;14.30;64.80
22469;DHT22;11401;50.792;4.352;2023-02-21T09:23:53;14.30;64.90
22469;DHT22;11401;50.792;4.352;2023-02-21T09:26:21;14.30;64.70
22469;DHT22;11401;50.792;4.352;2023-02-21T09:28:53;14.30;64.90
22469;DHT22;11401;50.792;4.352;2023-02-21T09:31:20;14.20;64.90
22469;DHT22;11401;50.792;4.352;2023-02-21T09:33:47;14.30;65.50
22469;DHT22;11401;50.792;4.352;2023-02-21T09:36:14;14.30;65.30
22469;DHT22;11401;50.792;4.352;2023-02-21T09:38:42;14.30;65.40
22469;DHT22;11401;50.792;4.352;2023-02-21T09:41:11;14.30;65.40
22469;DHT22;11401;50.792;4.352;2023-02-21T09:43:43;14.30;65.30
22469;DHT22;11401;50.792;4.352;2023-02-21T09:46:38;14.30;65.00
22469;DHT22;11401;50.792;4.352;2023-02-21T09:49:12;14.30;64.30
22469;DHT22;11401;50.792;4.352;2023-02-21T09:51:41;14.40;64.30
22469;DHT22;11401;50.792;4.352;2023-02-21T09:54:25;14.60;63.90
22469;DHT22;11401;50.792;4.352;2023-02-21T09:56:56;14.60;63.10
22469;DHT22;11401;50.792;4.352;2023-02-21T09:59:24;14.70;63.90
22469;DHT22;11401;50.792;4.352;2023-02-21T10:21:15;15.00;62.10
22469;DHT22;11401;50.792;4.352;2023-02-21T10:23:46;15.00;61.20
22469;DHT22;11401;50.792;4.352;2023-02-21T10:26:28;14.90;61.50
22469;DHT22;11401;50.792;4.352;2023-02-21T10:28:56;14.90;61.60
22469;DHT22;11401;50.792;4.352;2023-02-21T10:31:35;14.90;61.80
22469;DHT22;11401;50.792;4.352;2023-02-21T10:34:05;14.90;61.70
22469;DHT22;11401;50.792;4.352;2023-02-21T10:36:33;14.90;62.10
22469;DHT22;11401;50.792;4.352;2023-02-21T10:41:35;15.00;62.10
22469;DHT22;11401;50.792;4.352;2023-02-21T10:44:11;15.30;62.20
22469;DHT22;11401;50.792;4.352;2023-02-21T10:46:44;15.20;60.80
22469;DHT22;11401;50.792;4.352;2023-02-21T10:49:24;15.30;60.80
22469;DHT22;11401;50.792;4.352;2023-02-21T10:52:12;15.30;61.10
22469;DHT22;11401;50.792;4.352;2023-02-21T10:54:39;15.50;61.60
22469;DHT22;11401;50.792;4.352;2023-02-21T10:57:09;15.30;59.90
22469;DHT22;11401;50.792;4.352;2023-02-21T10:59:40;15.10;61.30
22469;DHT22;11401;50.792;4.352;2023-02-21T11:02:34;15.00;62.10
22469;DHT22;11401;50.792;4.352;2023-02-21T11:05:21;15.00;61.90
22469;DHT22;11401;50.792;4.352;2023-02-21T11:08:09;15.00;62.30
22469;DHT22;11401;50.792;4.352;2023-02-21T11:10:40;15.00;62.10
22469;DHT22;11401;50.792;4.352;2023-02-21T11:13:12;14.90;61.70
22469;DHT22;11401;50.792;4.352;2023-02-21T11:15:44;14.80;62.50
22469;DHT22;11401;50.792;4.352;2023-02-21T11:18:13;14.80;63.10
22469;DHT22;11401;50.792;4.352;2023-02-21T11:20:43;14.70;62.70
22469;DHT22;11401;50.792;4.352;2023-02-21T11:23:18;14.70;63.00
22469;DHT22;11401;50.792;4.352;2023-02-21T11:25:47;14.80;62.50
22469;DHT22;11401;50.792;4.352;2023-02-21T11:28:22;14.80;62.50
22469;DHT22;11401;50.792;4.352;2023-02-21T11:33:29;14.80;62.10
22469;DHT22;11401;50.792;4.352;2023-02-21T11:36:13;14.90;62.10
22469;DHT22;11401;50.792;4.352;2023-02-21T11:38:43;14.90;61.80
22469;DHT22;11401;50.792;4.352;2023-02-21T11:43:48;14.90;61.80
22469;DHT22;11401;50.792;4.352;2023-02-21T11:46:43;14.80;61.60
22469;DHT22;11401;50.792;4.352;2023-02-21T11:52:13;14.70;61.70
22469;DHT22;11401;50.792;4.352;2023-02-21T11:54:42;14.80;62.10
22469;DHT22;11401;50.792;4.352;2023-02-21T12:00:24;14.80;62.00
22469;DHT22;11401;50.792;4.352;2023-02-21T12:09:07;15.00;61.70
22469;DHT22;11401;50.792;4.352;2023-02-21T12:12:01;15.00;61.50
22469;DHT22;11401;50.792;4.352;2023-02-21T12:20:46;15.00;61.50
22469;DHT22;11401;50.792;4.352;2023-02-21T12:30:03;15.00;61.90
22469;DHT22;11401;50.792;4.352;2023-02-21T12:32:31;15.00;62.10
22469;DHT22;11401;50.792;4.352;2023-02-21T12:37:58;15.00;61.60
22469;DHT22;11401;50.792;4.352;2023-02-21T12:41:12;15.00;61.40
22469;DHT22;11401;50.792;4.352;2023-02-21T12:51:13;15.00;61.40
22469;DHT22;11401;50.792;4.352;2023-02-21T12:56:23;15.10;61.10
22469;DHT22;11401;50.792;4.352;2023-02-21T13:02:15;15.00;61.40
22469;DHT22;11401;50.792;4.352;2023-02-21T13:04:46;15.00;61.40
22469;DHT22;11401;50.792;4.352;2023-02-21T13:07:25;15.10;61.20
22469;DHT22;11401;50.792;4.352;2023-02-21T13:10:14;15.10;61.20
22469;DHT22;11401;50.792;4.352;2023-02-21T13:15:47;15.10;60.30
22469;DHT22;11401;50.792;4.352;2023-02-21T13:18:23;15.10;61.00
22469;DHT22;11401;50.792;4.352;2023-02-21T13:21:07;15.10;60.20
22469;DHT22;11401;50.792;4.352;2023-02-21T13:23:58;15.10;61.30
22469;DHT22;11401;50.792;4.352;2023-02-21T13:29:31;15.20;60.70
22469;DHT22;11401;50.792;4.352;2023-02-21T13:32:05;15.20;60.10
22469;DHT22;11401;50.792;4.352;2023-02-21T13:34:39;15.30;60.20
22469;DHT22;11401;50.792;4.352;2023-02-21T13:37:20;15.30;60.30
22469;DHT22;11401;50.792;4.352;2023-02-21T13:39:55;15.30;59.90
22469;DHT22;11401;50.792;4.352;2023-02-21T13:42:27;15.30;60.00
22469;DHT22;11401;50.792;4.352;2023-02-21T13:45:15;15.30;60.60
22469;DHT22;11401;50.792;4.352;2023-02-21T13:48:09;15.40;59.90
22469;DHT22;11401;50.792;4.352;2023-02-21T13:54:02;15.50;59.50
22469;DHT22;11401;50.792;4.352;2023-02-21T13:56:40;15.40;59.80
22469;DHT22;11401;50.792;4.352;2023-02-21T13:59:34;15.40;59.90
22469;DHT22;11401;50.792;4.352;2023-02-21T14:02:25;15.30;60.00
22469;DHT22;11401;50.792;4.352;2023-02-21T14:07:45;15.40;60.20
22469;DHT22;11401;50.792;4.352;2023-02-21T14:10:29;15.30;60.30
22469;DHT22;11401;50.792;4.352;2023-02-21T14:13:02;15.40;59.90
22469;DHT22;11401;50.792;4.352;2023-02-21T14:15:44;15.50;59.80
22469;DHT22;11401;50.792;4.352;2023-02-21T14:18:19;15.40;59.20
22469;DHT22;11401;50.792;4.352;2023-02-21T14:20:50;15.40;59.70
22469;DHT22;11401;50.792;4.352;2023-02-21T14:23:20;15.40;60.20
22469;DHT22;11401;50.792;4.352;2023-02-21T14:26:35;15.40;59.80
22469;DHT22;11401;50.792;4.352;2023-02-21T14:29:13;15.30;58.90
22469;DHT22;11401;50.792;4.352;2023-02-21T14:40:24;15.30;59.50
22469;DHT22;11401;50.792;4.352;2023-02-21T14:48:36;15.20;60.00
22469;DHT22;11401;50.792;4.352;2023-02-21T14:56:48;15.00;61.00
22469;DHT22;11401;50.792;4.352;2023-02-21T15:02:15;15.20;61.20
22469;DHT22;11401;50.792;4.352;2023-02-21T15:04:59;15.20;61.00
22469;DHT22;11401;50.792;4.352;2023-02-21T15:12:41;15.20;60.10
22469;DHT22;11401;50.792;4.352;2023-02-21T15:15:16;15.20;59.90
22469;DHT22;11401;50.792;4.352;2023-02-21T15:17:53;15.20;60.50
22469;DHT22;11401;50.792;4.352;2023-02-21T15:20:21;15.20;60.50
22469;DHT22;11401;50.792;4.352;2023-02-21T15:23:13;15.30;60.40
22469;DHT22;11401;50.792;4.352;2023-02-21T15:25:42;15.20;60.10
22469;DHT22;11401;50.792;4.352;2023-02-21T15:28:37;15.20;60.40
22469;DHT22;11401;50.792;4.352;2023-02-21T15:31:07;15.30;60.60
22469;DHT22;11401;50.792;4.352;2023-02-21T15:33:39;15.40;61.40
22469;DHT22;11401;50.792;4.352;2023-02-21T15:36:17;15.60;59.40
22469;DHT22;11401;50.792;4.352;2023-02-21T15:38:50;15.70;59.70
22469;DHT22;11401;50.792;4.352;2023-02-21T15:41:35;15.70;58.60
22469;DHT22;11401;50.792;4.352;2023-02-21T15:49:25;15.30;60.10
22469;DHT22;11401;50.792;4.352;2023-02-21T15:51:53;15.20;60.00
22469;DHT22;11401;50.792;4.352;2023-02-21T15:54:30;15.20;60.40
22469;DHT22;11401;50.792;4.352;2023-02-21T15:57:22;15.20;60.50
22469;DHT22;11401;50.792;4.352;2023-02-21T16:00:17;15.10;60.10
22469;DHT22;11401;50.792;4.352;2023-02-21T16:02:44;15.10;60.60
22469;DHT22;11401;50.792;4.352;2023-02-21T16:05:26;15.10;61.10
22469;DHT22;11401;50.792;4.352;2023-02-21T16:08:00;15.00;60.90
22469;DHT22;11401;50.792;4.352;2023-02-21T16:10:28;15.00;61.20
22469;DHT22;11401;50.792;4.352;2023-02-21T16:12:59;15.00;61.30
22469;DHT22;11401;50.792;4.352;2023-02-21T16:15:30;15.00;61.60
22469;DHT22;11401;50.792;4.352;2023-02-21T16:18:01;15.00;61.10
22469;DHT22;11401;50.792;4.352;2023-02-21T16:20:35;15.00;60.90
22469;DHT22;11401;50.792;4.352;2023-02-21T16:23:29;15.00;60.70
22469;DHT22;11401;50.792;4.352;2023-02-21T16:28:39;14.90;61.10
22469;DHT22;11401;50.792;4.352;2023-02-21T16:31:13;15.00;61.20
22469;DHT22;11401;50.792;4.352;2023-02-21T16:33:41;14.90;60.80
22469;DHT22;11401;50.792;4.352;2023-02-21T16:36:17;14.90;61.20
22469;DHT22;11401;50.792;4.352;2023-02-21T16:38:46;14.90;61.30
22469;DHT22;11401;50.792;4.352;2023-02-21T16:41:13;14.90;61.10
22469;DHT22;11401;50.792;4.352;2023-02-21T16:43:42;14.90;61.40
22469;DHT22;11401;50.792;4.352;2023-02-21T16:46:09;14.90;60.90
22469;DHT22;11401;50.792;4.352;2023-02-21T16:48:45;14.90;61.10
22469;DHT22;11401;50.792;4.352;2023-02-21T16:51:12;14.90;61.00
22469;DHT22;11401;50.792;4.352;2023-02-21T16:53:40;14.90;61.50
22469;DHT22;11401;50.792;4.352;2023-02-21T16:56:07;14.90;60.90
22469;DHT22;11401;50.792;4.352;2023-02-21T16:58:38;14.90;61.20
22469;DHT22;11401;50.792;4.352;2023-02-21T17:01:14;14.90;61.10
22469;DHT22;11401;50.792;4.352;2023-02-21T17:03:44;14.90;60.80
22469;DHT22;11401;50.792;4.352;2023-02-21T17:06:21;14.90;60.60
22469;DHT22;11401;50.792;4.352;2023-02-21T17:08:50;14.80;60.60
22469;DHT22;11401;50.792;4.352;2023-02-21T17:11:17;14.70;58.90
22469;DHT22;11401;50.792;4.352;2023-02-21T17:13:45;14.30;59.50
22469;DHT22;11401;50.792;4.352;2023-02-21T17:16:13;13.80;60.80
22469;DHT22;11401;50.792;4.352;2023-02-21T17:18:43;13.60;63.70
22469;DHT22;11401;50.792;4.352;2023-02-21T17:21:10;13.70;63.60
22469;DHT22;11401;50.792;4.352;2023-02-21T17:23:37;13.90;63.40
22469;DHT22;11401;50.792;4.352;2023-02-21T17:26:04;14.00;63.30
22469;DHT22;11401;50.792;4.352;2023-02-21T17:28:31;14.10;61.70
22469;DHT22;11401;50.792;4.352;2023-02-21T17:31:00;13.60;61.00
22469;DHT22;11401;50.792;4.352;2023-02-21T17:33:27;13.20;62.20
22469;DHT22;11401;50.792;4.352;2023-02-21T17:35:54;12.80;63.80
22469;DHT22;11401;50.792;4.352;2023-02-21T17:38:21;12.60;65.30
22469;DHT22;11401;50.792;4.352;2023-02-21T17:40:48;12.20;65.90
22469;DHT22;11401;50.792;4.352;2023-02-21T17:43:15;12.10;67.50
22469;DHT22;11401;50.792;4.352;2023-02-21T17:45:42;12.60;68.10
22469;DHT22;11401;50.792;4.352;2023-02-21T17:48:11;13.00;66.60
22469;DHT22;11401;50.792;4.352;2023-02-21T17:50:38;13.30;65.40
22469;DHT22;11401;50.792;4.352;2023-02-21T17:53:05;13.50;64.50
22469;DHT22;11401;50.792;4.352;2023-02-21T17:55:34;13.70;63.80
22469;DHT22;11401;50.792;4.352;2023-02-21T17:58:01;13.90;63.40
22469;DHT22;11401;50.792;4.352;2023-02-21T18:00:28;14.00;63.00
22469;DHT22;11401;50.792;4.352;2023-02-21T18:03:00;14.00;62.30
22469;DHT22;11401;50.792;4.352;2023-02-21T18:05:30;14.10;62.60
22469;DHT22;11401;50.792;4.352;2023-02-21T18:07:58;14.10;62.00
22469;DHT22;11401;50.792;4.352;2023-02-21T18:10:27;14.10;61.90
22469;DHT22;11401;50.792;4.352;2023-02-21T18:12:55;14.10;62.10
22469;DHT22;11401;50.792;4.352;2023-02-21T18:15:23;14.10;61.60
22469;DHT22;11401;50.792;4.352;2023-02-21T18:17:53;14.10;61.40
22469;DHT22;11401;50.792;4.352;2023-02-21T18:20:20;14.10;61.60
22469;DHT22;11401;50.792;4.352;2023-02-21T18:22:47;14.10;61.40
22469;DHT22;11401;50.792;4.352;2023-02-21T18:25:16;14.10;61.50
22469;DHT22;11401;50.792;4.352;2023-02-21T18:27:44;14.10;61.50
22469;DHT22;11401;50.792;4.352;2023-02-21T18:30:11;14.10;61.40
22469;DHT22;11401;50.792;4.352;2023-02-21T18:32:39;14.00;61.10
22469;DHT22;11401;50.792;4.352;2023-02-21T18:35:06;14.00;61.10
22469;DHT22;11401;50.792;4.352;2023-02-21T18:37:33;13.90;61.80